<?xml version="1.0" encoding="UTF-8" standalone="no" ?>
<gpx xmlns="http://www.topografix.com/GPX/1/1" xmlns:xsi="http://www.w3.org/2001/XMLSchema-instance" xsi:schemaLocation="http://www.topografix.com/GPX/1/1 http://www.topografix.com/GPX/1/1/gpx.xsd" version="1.1" creator="VisuGPX - https://www.visugpx.com">
  <metadata>
    <name>Balcon de la Vallée Heureuse</name>
  </metadata>
  <trk>
    <name><![CDATA[Balcon de la Vallée Heureuse_1]]></name>
    <trkseg>
      <trkpt lat="42.50149" lon="2.95885">
        <ele>413.5</ele>
        <time>2020-07-14T10:13:24Z</time>
      </trkpt>
      <trkpt lat="42.50149" lon="2.95885">
        <ele>413.5</ele>
        <time>2020-07-14T10:13:24Z</time>
      </trkpt>
      <trkpt lat="42.50149" lon="2.95885">
        <ele>413.5</ele>
        <time>2020-07-14T10:13:24Z</time>
      </trkpt>
      <trkpt lat="42.50158" lon="2.95888">
        <ele>415</ele>
        <time>2020-07-14T10:13:29Z</time>
      </trkpt>
      <trkpt lat="42.50166" lon="2.95896">
        <ele>416.7</ele>
        <time>2020-07-14T10:13:34Z</time>
      </trkpt>
      <trkpt lat="42.50171" lon="2.95908">
        <ele>418.2</ele>
        <time>2020-07-14T10:13:39Z</time>
      </trkpt>
      <trkpt lat="42.50175" lon="2.95921">
        <ele>419.6</ele>
        <time>2020-07-14T10:13:44Z</time>
      </trkpt>
      <trkpt lat="42.50177" lon="2.95934">
        <ele>420.1</ele>
        <time>2020-07-14T10:13:49Z</time>
      </trkpt>
      <trkpt lat="42.5018" lon="2.95947">
        <ele>420.4</ele>
        <time>2020-07-14T10:13:54Z</time>
      </trkpt>
      <trkpt lat="42.50186" lon="2.9596">
        <ele>420.5</ele>
        <time>2020-07-14T10:13:59Z</time>
      </trkpt>
      <trkpt lat="42.50193" lon="2.95968">
        <ele>420.8</ele>
        <time>2020-07-14T10:14:03Z</time>
      </trkpt>
      <trkpt lat="42.50199" lon="2.9598">
        <ele>421</ele>
        <time>2020-07-14T10:14:07Z</time>
      </trkpt>
      <trkpt lat="42.50205" lon="2.95993">
        <ele>421.1</ele>
        <time>2020-07-14T10:14:11Z</time>
      </trkpt>
      <trkpt lat="42.50212" lon="2.96002">
        <ele>421.3</ele>
        <time>2020-07-14T10:14:16Z</time>
      </trkpt>
      <trkpt lat="42.50218" lon="2.96011">
        <ele>421.5</ele>
        <time>2020-07-14T10:14:20Z</time>
      </trkpt>
      <trkpt lat="42.50227" lon="2.96018">
        <ele>422.9</ele>
        <time>2020-07-14T10:14:24Z</time>
      </trkpt>
      <trkpt lat="42.50237" lon="2.96021">
        <ele>424.5</ele>
        <time>2020-07-14T10:14:28Z</time>
      </trkpt>
      <trkpt lat="42.50246" lon="2.96023">
        <ele>426.5</ele>
        <time>2020-07-14T10:14:32Z</time>
      </trkpt>
      <trkpt lat="42.50245" lon="2.96037">
        <ele>427</ele>
        <time>2020-07-14T10:15:43Z</time>
      </trkpt>
      <trkpt lat="42.50251" lon="2.96047">
        <ele>423.8</ele>
        <time>2020-07-14T10:15:51Z</time>
      </trkpt>
      <trkpt lat="42.5026" lon="2.96047">
        <ele>422.6</ele>
        <time>2020-07-14T10:15:57Z</time>
      </trkpt>
      <trkpt lat="42.50267" lon="2.96037">
        <ele>423.8</ele>
        <time>2020-07-14T10:16:04Z</time>
      </trkpt>
      <trkpt lat="42.50275" lon="2.9603">
        <ele>424.7</ele>
        <time>2020-07-14T10:16:33Z</time>
      </trkpt>
      <trkpt lat="42.5028" lon="2.96017">
        <ele>424</ele>
        <time>2020-07-14T10:16:40Z</time>
      </trkpt>
      <trkpt lat="42.50284" lon="2.96005">
        <ele>422.4</ele>
        <time>2020-07-14T10:16:46Z</time>
      </trkpt>
      <trkpt lat="42.50288" lon="2.95994">
        <ele>420.6</ele>
        <time>2020-07-14T10:16:56Z</time>
      </trkpt>
      <trkpt lat="42.50294" lon="2.95983">
        <ele>420.4</ele>
        <time>2020-07-14T10:17:07Z</time>
      </trkpt>
      <trkpt lat="42.503" lon="2.95974">
        <ele>420.6</ele>
        <time>2020-07-14T10:17:13Z</time>
      </trkpt>
      <trkpt lat="42.50304" lon="2.95962">
        <ele>421.6</ele>
        <time>2020-07-14T10:17:41Z</time>
      </trkpt>
      <trkpt lat="42.50312" lon="2.95954">
        <ele>421.6</ele>
        <time>2020-07-14T10:17:46Z</time>
      </trkpt>
      <trkpt lat="42.50321" lon="2.95951">
        <ele>420.3</ele>
        <time>2020-07-14T10:17:50Z</time>
      </trkpt>
      <trkpt lat="42.50327" lon="2.95942">
        <ele>418</ele>
        <time>2020-07-14T10:17:55Z</time>
      </trkpt>
      <trkpt lat="42.50332" lon="2.95931">
        <ele>416.6</ele>
        <time>2020-07-14T10:17:59Z</time>
      </trkpt>
      <trkpt lat="42.50336" lon="2.95918">
        <ele>413.5</ele>
        <time>2020-07-14T10:18:06Z</time>
      </trkpt>
      <trkpt lat="42.50337" lon="2.95904">
        <ele>411.4</ele>
        <time>2020-07-14T10:18:10Z</time>
      </trkpt>
      <trkpt lat="42.50339" lon="2.95892">
        <ele>410</ele>
        <time>2020-07-14T10:18:13Z</time>
      </trkpt>
      <trkpt lat="42.50342" lon="2.95879">
        <ele>408.2</ele>
        <time>2020-07-14T10:18:19Z</time>
      </trkpt>
      <trkpt lat="42.50347" lon="2.95868">
        <ele>406.6</ele>
        <time>2020-07-14T10:18:26Z</time>
      </trkpt>
      <trkpt lat="42.50356" lon="2.95862">
        <ele>405.6</ele>
        <time>2020-07-14T10:18:37Z</time>
      </trkpt>
      <trkpt lat="42.50364" lon="2.95854">
        <ele>402.6</ele>
        <time>2020-07-14T10:18:56Z</time>
      </trkpt>
      <trkpt lat="42.50374" lon="2.95851">
        <ele>401.7</ele>
        <time>2020-07-14T10:19:02Z</time>
      </trkpt>
      <trkpt lat="42.50379" lon="2.95862">
        <ele>401.7</ele>
        <time>2020-07-14T10:19:14Z</time>
      </trkpt>
      <trkpt lat="42.50384" lon="2.95873">
        <ele>401.8</ele>
        <time>2020-07-14T10:19:19Z</time>
      </trkpt>
      <trkpt lat="42.50392" lon="2.95881">
        <ele>401.4</ele>
        <time>2020-07-14T10:19:29Z</time>
      </trkpt>
      <trkpt lat="42.50401" lon="2.95888">
        <ele>401.4</ele>
        <time>2020-07-14T10:19:35Z</time>
      </trkpt>
      <trkpt lat="42.50411" lon="2.95892">
        <ele>401.9</ele>
        <time>2020-07-14T10:19:42Z</time>
      </trkpt>
      <trkpt lat="42.50422" lon="2.95894">
        <ele>402.4</ele>
        <time>2020-07-14T10:19:47Z</time>
      </trkpt>
      <trkpt lat="42.50433" lon="2.95899">
        <ele>402.9</ele>
        <time>2020-07-14T10:19:51Z</time>
      </trkpt>
      <trkpt lat="42.50442" lon="2.95902">
        <ele>403.1</ele>
        <time>2020-07-14T10:19:55Z</time>
      </trkpt>
      <trkpt lat="42.50452" lon="2.95901">
        <ele>403.5</ele>
        <time>2020-07-14T10:20:00Z</time>
      </trkpt>
      <trkpt lat="42.50459" lon="2.9589">
        <ele>403.6</ele>
        <time>2020-07-14T10:20:05Z</time>
      </trkpt>
      <trkpt lat="42.50461" lon="2.95878">
        <ele>403.6</ele>
        <time>2020-07-14T10:20:10Z</time>
      </trkpt>
      <trkpt lat="42.50464" lon="2.95865">
        <ele>403.4</ele>
        <time>2020-07-14T10:20:15Z</time>
      </trkpt>
      <trkpt lat="42.50469" lon="2.95854">
        <ele>403.3</ele>
        <time>2020-07-14T10:20:20Z</time>
      </trkpt>
      <trkpt lat="42.50479" lon="2.95849">
        <ele>403</ele>
        <time>2020-07-14T10:20:23Z</time>
      </trkpt>
      <trkpt lat="42.5049" lon="2.95848">
        <ele>402.2</ele>
        <time>2020-07-14T10:20:27Z</time>
      </trkpt>
      <trkpt lat="42.505" lon="2.95849">
        <ele>402</ele>
        <time>2020-07-14T10:20:30Z</time>
      </trkpt>
      <trkpt lat="42.50511" lon="2.95851">
        <ele>401.9</ele>
        <time>2020-07-14T10:20:35Z</time>
      </trkpt>
      <trkpt lat="42.50522" lon="2.95851">
        <ele>401.9</ele>
        <time>2020-07-14T10:20:43Z</time>
      </trkpt>
      <trkpt lat="42.5053" lon="2.95844">
        <ele>402.8</ele>
        <time>2020-07-14T10:20:50Z</time>
      </trkpt>
      <trkpt lat="42.5054" lon="2.95843">
        <ele>402.2</ele>
        <time>2020-07-14T10:20:57Z</time>
      </trkpt>
      <trkpt lat="42.50549" lon="2.95837">
        <ele>400.4</ele>
        <time>2020-07-14T10:21:01Z</time>
      </trkpt>
      <trkpt lat="42.50559" lon="2.95831">
        <ele>399.1</ele>
        <time>2020-07-14T10:21:05Z</time>
      </trkpt>
      <trkpt lat="42.50569" lon="2.9583">
        <ele>398.2</ele>
        <time>2020-07-14T10:21:08Z</time>
      </trkpt>
      <trkpt lat="42.5058" lon="2.95832">
        <ele>397.2</ele>
        <time>2020-07-14T10:21:11Z</time>
      </trkpt>
      <trkpt lat="42.5059" lon="2.95836">
        <ele>396.6</ele>
        <time>2020-07-14T10:21:14Z</time>
      </trkpt>
      <trkpt lat="42.50599" lon="2.95839">
        <ele>396</ele>
        <time>2020-07-14T10:21:17Z</time>
      </trkpt>
      <trkpt lat="42.50608" lon="2.95845">
        <ele>395.1</ele>
        <time>2020-07-14T10:21:21Z</time>
      </trkpt>
      <trkpt lat="42.50618" lon="2.95845">
        <ele>393.7</ele>
        <time>2020-07-14T10:21:24Z</time>
      </trkpt>
      <trkpt lat="42.50629" lon="2.95846">
        <ele>392.3</ele>
        <time>2020-07-14T10:21:28Z</time>
      </trkpt>
      <trkpt lat="42.50641" lon="2.95843">
        <ele>391.5</ele>
        <time>2020-07-14T10:21:32Z</time>
      </trkpt>
      <trkpt lat="42.50651" lon="2.95844">
        <ele>391.1</ele>
        <time>2020-07-14T10:21:36Z</time>
      </trkpt>
      <trkpt lat="42.50661" lon="2.95847">
        <ele>390.9</ele>
        <time>2020-07-14T10:21:41Z</time>
      </trkpt>
      <trkpt lat="42.50672" lon="2.95847">
        <ele>390.8</ele>
        <time>2020-07-14T10:21:45Z</time>
      </trkpt>
      <trkpt lat="42.50681" lon="2.95851">
        <ele>390.5</ele>
        <time>2020-07-14T10:21:49Z</time>
      </trkpt>
      <trkpt lat="42.50691" lon="2.9585">
        <ele>388.3</ele>
        <time>2020-07-14T10:21:57Z</time>
      </trkpt>
      <trkpt lat="42.50696" lon="2.95839">
        <ele>386.1</ele>
        <time>2020-07-14T10:22:01Z</time>
      </trkpt>
      <trkpt lat="42.50702" lon="2.95827">
        <ele>383.9</ele>
        <time>2020-07-14T10:22:05Z</time>
      </trkpt>
      <trkpt lat="42.50708" lon="2.95817">
        <ele>379.7</ele>
        <time>2020-07-14T10:22:11Z</time>
      </trkpt>
      <trkpt lat="42.5072" lon="2.95807">
        <ele>378.1</ele>
        <time>2020-07-14T10:22:14Z</time>
      </trkpt>
      <trkpt lat="42.5073" lon="2.95805">
        <ele>377.3</ele>
        <time>2020-07-14T10:22:17Z</time>
      </trkpt>
      <trkpt lat="42.50739" lon="2.95807">
        <ele>377.1</ele>
        <time>2020-07-14T10:22:19Z</time>
      </trkpt>
      <trkpt lat="42.5075" lon="2.95808">
        <ele>376.9</ele>
        <time>2020-07-14T10:22:23Z</time>
      </trkpt>
      <trkpt lat="42.5076" lon="2.95803">
        <ele>377.4</ele>
        <time>2020-07-14T10:22:28Z</time>
      </trkpt>
      <trkpt lat="42.50768" lon="2.958">
        <ele>378.8</ele>
        <time>2020-07-14T10:22:35Z</time>
      </trkpt>
      <trkpt lat="42.50776" lon="2.95793">
        <ele>379.2</ele>
        <time>2020-07-14T10:24:45Z</time>
      </trkpt>
      <trkpt lat="42.50781" lon="2.9578">
        <ele>376.8</ele>
        <time>2020-07-14T10:24:51Z</time>
      </trkpt>
      <trkpt lat="42.50786" lon="2.95767">
        <ele>371.8</ele>
        <time>2020-07-14T10:24:58Z</time>
      </trkpt>
      <trkpt lat="42.50788" lon="2.95755">
        <ele>368.4</ele>
        <time>2020-07-14T10:25:03Z</time>
      </trkpt>
      <trkpt lat="42.50786" lon="2.95741">
        <ele>366.3</ele>
        <time>2020-07-14T10:25:08Z</time>
      </trkpt>
      <trkpt lat="42.50788" lon="2.95727">
        <ele>363.8</ele>
        <time>2020-07-14T10:25:14Z</time>
      </trkpt>
      <trkpt lat="42.50794" lon="2.95716">
        <ele>362.2</ele>
        <time>2020-07-14T10:25:24Z</time>
      </trkpt>
      <trkpt lat="42.508" lon="2.95708">
        <ele>359.2</ele>
        <time>2020-07-14T10:25:32Z</time>
      </trkpt>
      <trkpt lat="42.50808" lon="2.95702">
        <ele>356.1</ele>
        <time>2020-07-14T10:25:40Z</time>
      </trkpt>
      <trkpt lat="42.50814" lon="2.95692">
        <ele>355</ele>
        <time>2020-07-14T10:25:46Z</time>
      </trkpt>
      <trkpt lat="42.50823" lon="2.95684">
        <ele>354.1</ele>
        <time>2020-07-14T10:25:51Z</time>
      </trkpt>
      <trkpt lat="42.50831" lon="2.95678">
        <ele>353.4</ele>
        <time>2020-07-14T10:25:55Z</time>
      </trkpt>
      <trkpt lat="42.50842" lon="2.95675">
        <ele>352.2</ele>
        <time>2020-07-14T10:26:00Z</time>
      </trkpt>
      <trkpt lat="42.50852" lon="2.95676">
        <ele>351.6</ele>
        <time>2020-07-14T10:26:04Z</time>
      </trkpt>
      <trkpt lat="42.50862" lon="2.95676">
        <ele>350.7</ele>
        <time>2020-07-14T10:26:08Z</time>
      </trkpt>
      <trkpt lat="42.50872" lon="2.95671">
        <ele>349.6</ele>
        <time>2020-07-14T10:26:12Z</time>
      </trkpt>
      <trkpt lat="42.5088" lon="2.95663">
        <ele>348.9</ele>
        <time>2020-07-14T10:26:17Z</time>
      </trkpt>
      <trkpt lat="42.50889" lon="2.9566">
        <ele>349.4</ele>
        <time>2020-07-14T10:26:22Z</time>
      </trkpt>
      <trkpt lat="42.50899" lon="2.95659">
        <ele>349.7</ele>
        <time>2020-07-14T10:26:28Z</time>
      </trkpt>
      <trkpt lat="42.50908" lon="2.95657">
        <ele>348.8</ele>
        <time>2020-07-14T10:26:32Z</time>
      </trkpt>
      <trkpt lat="42.50917" lon="2.95649">
        <ele>346</ele>
        <time>2020-07-14T10:26:40Z</time>
      </trkpt>
      <trkpt lat="42.50921" lon="2.95637">
        <ele>343.8</ele>
        <time>2020-07-14T10:26:43Z</time>
      </trkpt>
      <trkpt lat="42.50931" lon="2.9563">
        <ele>342.6</ele>
        <time>2020-07-14T10:26:46Z</time>
      </trkpt>
      <trkpt lat="42.50941" lon="2.95624">
        <ele>341.4</ele>
        <time>2020-07-14T10:26:49Z</time>
      </trkpt>
      <trkpt lat="42.5095" lon="2.9562">
        <ele>340.1</ele>
        <time>2020-07-14T10:26:52Z</time>
      </trkpt>
      <trkpt lat="42.50959" lon="2.95616">
        <ele>338.9</ele>
        <time>2020-07-14T10:26:55Z</time>
      </trkpt>
      <trkpt lat="42.50969" lon="2.95613">
        <ele>335.9</ele>
        <time>2020-07-14T10:26:59Z</time>
      </trkpt>
      <trkpt lat="42.5098" lon="2.9561">
        <ele>333.3</ele>
        <time>2020-07-14T10:27:02Z</time>
      </trkpt>
      <trkpt lat="42.50988" lon="2.95605">
        <ele>331.2</ele>
        <time>2020-07-14T10:27:05Z</time>
      </trkpt>
      <trkpt lat="42.50998" lon="2.956">
        <ele>327.8</ele>
        <time>2020-07-14T10:27:13Z</time>
      </trkpt>
      <trkpt lat="42.51006" lon="2.95592">
        <ele>325.6</ele>
        <time>2020-07-14T10:27:17Z</time>
      </trkpt>
      <trkpt lat="42.51014" lon="2.95582">
        <ele>324.4</ele>
        <time>2020-07-14T10:27:22Z</time>
      </trkpt>
      <trkpt lat="42.51022" lon="2.95575">
        <ele>323.9</ele>
        <time>2020-07-14T10:27:25Z</time>
      </trkpt>
      <trkpt lat="42.51032" lon="2.95569">
        <ele>323</ele>
        <time>2020-07-14T10:27:28Z</time>
      </trkpt>
      <trkpt lat="42.5104" lon="2.9556">
        <ele>322.3</ele>
        <time>2020-07-14T10:27:34Z</time>
      </trkpt>
      <trkpt lat="42.51048" lon="2.95547">
        <ele>321.3</ele>
        <time>2020-07-14T10:27:38Z</time>
      </trkpt>
      <trkpt lat="42.51055" lon="2.95535">
        <ele>320</ele>
        <time>2020-07-14T10:27:41Z</time>
      </trkpt>
      <trkpt lat="42.51065" lon="2.95527">
        <ele>318.7</ele>
        <time>2020-07-14T10:27:44Z</time>
      </trkpt>
      <trkpt lat="42.51073" lon="2.95521">
        <ele>317.1</ele>
        <time>2020-07-14T10:28:25Z</time>
      </trkpt>
      <trkpt lat="42.5108" lon="2.95511">
        <ele>317.5</ele>
        <time>2020-07-14T10:28:50Z</time>
      </trkpt>
      <trkpt lat="42.51088" lon="2.95504">
        <ele>318</ele>
        <time>2020-07-14T10:28:56Z</time>
      </trkpt>
      <trkpt lat="42.51094" lon="2.95494">
        <ele>318.5</ele>
        <time>2020-07-14T10:29:03Z</time>
      </trkpt>
      <trkpt lat="42.51104" lon="2.9549">
        <ele>318.8</ele>
        <time>2020-07-14T10:29:25Z</time>
      </trkpt>
      <trkpt lat="42.51111" lon="2.9548">
        <ele>317.6</ele>
        <time>2020-07-14T10:29:31Z</time>
      </trkpt>
      <trkpt lat="42.51117" lon="2.95469">
        <ele>314.2</ele>
        <time>2020-07-14T10:29:37Z</time>
      </trkpt>
      <trkpt lat="42.51119" lon="2.95454">
        <ele>309.7</ele>
        <time>2020-07-14T10:29:43Z</time>
      </trkpt>
      <trkpt lat="42.5112" lon="2.95441">
        <ele>305.2</ele>
        <time>2020-07-14T10:29:49Z</time>
      </trkpt>
      <trkpt lat="42.51117" lon="2.95429">
        <ele>296.5</ele>
        <time>2020-07-14T10:29:55Z</time>
      </trkpt>
      <trkpt lat="42.51125" lon="2.95421">
        <ele>296.4</ele>
        <time>2020-07-14T10:30:02Z</time>
      </trkpt>
      <trkpt lat="42.51131" lon="2.95411">
        <ele>291.5</ele>
        <time>2020-07-14T10:30:11Z</time>
      </trkpt>
      <trkpt lat="42.51139" lon="2.95404">
        <ele>288.6</ele>
        <time>2020-07-14T10:30:25Z</time>
      </trkpt>
      <trkpt lat="42.51137" lon="2.95392">
        <ele>286.4</ele>
        <time>2020-07-14T10:32:06Z</time>
      </trkpt>
      <trkpt lat="42.51128" lon="2.95385">
        <ele>287.3</ele>
        <time>2020-07-14T10:32:12Z</time>
      </trkpt>
      <trkpt lat="42.51119" lon="2.9538">
        <ele>288.5</ele>
        <time>2020-07-14T10:32:17Z</time>
      </trkpt>
      <trkpt lat="42.5111" lon="2.95375">
        <ele>289.7</ele>
        <time>2020-07-14T10:32:22Z</time>
      </trkpt>
      <trkpt lat="42.51099" lon="2.95369">
        <ele>290.9</ele>
        <time>2020-07-14T10:32:27Z</time>
      </trkpt>
      <trkpt lat="42.51089" lon="2.95365">
        <ele>292</ele>
        <time>2020-07-14T10:32:31Z</time>
      </trkpt>
      <trkpt lat="42.51079" lon="2.95359">
        <ele>293.1</ele>
        <time>2020-07-14T10:32:36Z</time>
      </trkpt>
      <trkpt lat="42.5107" lon="2.95356">
        <ele>293.8</ele>
        <time>2020-07-14T10:32:40Z</time>
      </trkpt>
      <trkpt lat="42.5106" lon="2.95352">
        <ele>294.7</ele>
        <time>2020-07-14T10:32:44Z</time>
      </trkpt>
      <trkpt lat="42.5105" lon="2.9535">
        <ele>296</ele>
        <time>2020-07-14T10:32:49Z</time>
      </trkpt>
      <trkpt lat="42.51038" lon="2.9535">
        <ele>296.8</ele>
        <time>2020-07-14T10:32:54Z</time>
      </trkpt>
      <trkpt lat="42.51029" lon="2.9535">
        <ele>297.1</ele>
        <time>2020-07-14T10:32:58Z</time>
      </trkpt>
      <trkpt lat="42.5102" lon="2.95337">
        <ele>297.2</ele>
        <time>2020-07-14T10:33:03Z</time>
      </trkpt>
      <trkpt lat="42.5102" lon="2.95323">
        <ele>297.3</ele>
        <time>2020-07-14T10:33:06Z</time>
      </trkpt>
      <trkpt lat="42.51029" lon="2.95314">
        <ele>298.2</ele>
        <time>2020-07-14T10:33:10Z</time>
      </trkpt>
      <trkpt lat="42.51038" lon="2.95308">
        <ele>298.7</ele>
        <time>2020-07-14T10:33:14Z</time>
      </trkpt>
      <trkpt lat="42.51048" lon="2.95302">
        <ele>299.3</ele>
        <time>2020-07-14T10:33:18Z</time>
      </trkpt>
      <trkpt lat="42.51058" lon="2.95296">
        <ele>299.8</ele>
        <time>2020-07-14T10:33:22Z</time>
      </trkpt>
      <trkpt lat="42.51069" lon="2.95291">
        <ele>300.2</ele>
        <time>2020-07-14T10:33:26Z</time>
      </trkpt>
      <trkpt lat="42.5108" lon="2.95289">
        <ele>300.8</ele>
        <time>2020-07-14T10:33:30Z</time>
      </trkpt>
      <trkpt lat="42.51091" lon="2.95287">
        <ele>301.4</ele>
        <time>2020-07-14T10:33:34Z</time>
      </trkpt>
      <trkpt lat="42.51102" lon="2.95287">
        <ele>301.9</ele>
        <time>2020-07-14T10:33:38Z</time>
      </trkpt>
      <trkpt lat="42.51114" lon="2.95287">
        <ele>302.1</ele>
        <time>2020-07-14T10:33:42Z</time>
      </trkpt>
      <trkpt lat="42.51125" lon="2.95283">
        <ele>302.4</ele>
        <time>2020-07-14T10:33:46Z</time>
      </trkpt>
      <trkpt lat="42.51136" lon="2.95275">
        <ele>302.8</ele>
        <time>2020-07-14T10:33:50Z</time>
      </trkpt>
      <trkpt lat="42.51146" lon="2.95266">
        <ele>303</ele>
        <time>2020-07-14T10:33:54Z</time>
      </trkpt>
      <trkpt lat="42.51154" lon="2.95258">
        <ele>304</ele>
        <time>2020-07-14T10:33:58Z</time>
      </trkpt>
      <trkpt lat="42.51162" lon="2.95249">
        <ele>304.6</ele>
        <time>2020-07-14T10:34:02Z</time>
      </trkpt>
      <trkpt lat="42.5117" lon="2.95241">
        <ele>305.5</ele>
        <time>2020-07-14T10:34:06Z</time>
      </trkpt>
      <trkpt lat="42.51178" lon="2.95235">
        <ele>306.2</ele>
        <time>2020-07-14T10:34:10Z</time>
      </trkpt>
      <trkpt lat="42.51186" lon="2.95229">
        <ele>307.1</ele>
        <time>2020-07-14T10:34:15Z</time>
      </trkpt>
      <trkpt lat="42.51194" lon="2.95221">
        <ele>308.1</ele>
        <time>2020-07-14T10:34:23Z</time>
      </trkpt>
      <trkpt lat="42.51204" lon="2.95221">
        <ele>307.9</ele>
        <time>2020-07-14T10:34:26Z</time>
      </trkpt>
      <trkpt lat="42.51217" lon="2.95222">
        <ele>305.6</ele>
        <time>2020-07-14T10:34:29Z</time>
      </trkpt>
      <trkpt lat="42.51229" lon="2.95225">
        <ele>304.2</ele>
        <time>2020-07-14T10:34:31Z</time>
      </trkpt>
      <trkpt lat="42.5124" lon="2.95226">
        <ele>302.4</ele>
        <time>2020-07-14T10:34:33Z</time>
      </trkpt>
      <trkpt lat="42.51252" lon="2.95224">
        <ele>300.3</ele>
        <time>2020-07-14T10:34:35Z</time>
      </trkpt>
      <trkpt lat="42.51265" lon="2.95221">
        <ele>297.6</ele>
        <time>2020-07-14T10:34:37Z</time>
      </trkpt>
      <trkpt lat="42.51274" lon="2.95217">
        <ele>295.7</ele>
        <time>2020-07-14T10:34:39Z</time>
      </trkpt>
      <trkpt lat="42.51289" lon="2.95217">
        <ele>292.7</ele>
        <time>2020-07-14T10:34:42Z</time>
      </trkpt>
      <trkpt lat="42.51299" lon="2.9522">
        <ele>290.6</ele>
        <time>2020-07-14T10:34:44Z</time>
      </trkpt>
      <trkpt lat="42.51307" lon="2.95233">
        <ele>287.8</ele>
        <time>2020-07-14T10:34:47Z</time>
      </trkpt>
      <trkpt lat="42.51314" lon="2.95244">
        <ele>285.2</ele>
        <time>2020-07-14T10:34:50Z</time>
      </trkpt>
      <trkpt lat="42.51318" lon="2.95257">
        <ele>282.7</ele>
        <time>2020-07-14T10:34:52Z</time>
      </trkpt>
      <trkpt lat="42.51324" lon="2.9527">
        <ele>280.3</ele>
        <time>2020-07-14T10:34:54Z</time>
      </trkpt>
      <trkpt lat="42.51333" lon="2.95276">
        <ele>276</ele>
        <time>2020-07-14T10:34:58Z</time>
      </trkpt>
      <trkpt lat="42.51344" lon="2.95275">
        <ele>273.4</ele>
        <time>2020-07-14T10:35:01Z</time>
      </trkpt>
      <trkpt lat="42.51353" lon="2.95276">
        <ele>270.5</ele>
        <time>2020-07-14T10:35:04Z</time>
      </trkpt>
      <trkpt lat="42.51364" lon="2.95279">
        <ele>267.2</ele>
        <time>2020-07-14T10:35:07Z</time>
      </trkpt>
      <trkpt lat="42.51374" lon="2.95279">
        <ele>264.4</ele>
        <time>2020-07-14T10:35:10Z</time>
      </trkpt>
      <trkpt lat="42.51384" lon="2.95275">
        <ele>261.7</ele>
        <time>2020-07-14T10:35:13Z</time>
      </trkpt>
      <trkpt lat="42.51392" lon="2.95271">
        <ele>260</ele>
        <time>2020-07-14T10:35:15Z</time>
      </trkpt>
      <trkpt lat="42.51404" lon="2.95268">
        <ele>257.4</ele>
        <time>2020-07-14T10:35:18Z</time>
      </trkpt>
      <trkpt lat="42.51417" lon="2.95263">
        <ele>254.7</ele>
        <time>2020-07-14T10:35:21Z</time>
      </trkpt>
      <trkpt lat="42.51426" lon="2.95257">
        <ele>251.9</ele>
        <time>2020-07-14T10:35:24Z</time>
      </trkpt>
      <trkpt lat="42.51436" lon="2.95252">
        <ele>248.6</ele>
        <time>2020-07-14T10:35:28Z</time>
      </trkpt>
      <trkpt lat="42.51445" lon="2.95246">
        <ele>246.6</ele>
        <time>2020-07-14T10:35:31Z</time>
      </trkpt>
      <trkpt lat="42.51456" lon="2.95241">
        <ele>244.4</ele>
        <time>2020-07-14T10:35:34Z</time>
      </trkpt>
      <trkpt lat="42.51466" lon="2.9524">
        <ele>241.5</ele>
        <time>2020-07-14T10:35:39Z</time>
      </trkpt>
      <trkpt lat="42.51475" lon="2.95233">
        <ele>240</ele>
        <time>2020-07-14T10:36:23Z</time>
      </trkpt>
      <trkpt lat="42.51486" lon="2.95234">
        <ele>239.4</ele>
        <time>2020-07-14T10:36:27Z</time>
      </trkpt>
      <trkpt lat="42.51497" lon="2.95231">
        <ele>238.3</ele>
        <time>2020-07-14T10:36:30Z</time>
      </trkpt>
      <trkpt lat="42.51505" lon="2.95225">
        <ele>237.8</ele>
        <time>2020-07-14T10:36:32Z</time>
      </trkpt>
      <trkpt lat="42.51516" lon="2.95218">
        <ele>236.4</ele>
        <time>2020-07-14T10:36:34Z</time>
      </trkpt>
      <trkpt lat="42.51528" lon="2.95218">
        <ele>235</ele>
        <time>2020-07-14T10:36:36Z</time>
      </trkpt>
      <trkpt lat="42.51542" lon="2.95215">
        <ele>233</ele>
        <time>2020-07-14T10:36:38Z</time>
      </trkpt>
      <trkpt lat="42.51556" lon="2.95212">
        <ele>231.5</ele>
        <time>2020-07-14T10:36:40Z</time>
      </trkpt>
      <trkpt lat="42.51569" lon="2.9521">
        <ele>230.3</ele>
        <time>2020-07-14T10:36:42Z</time>
      </trkpt>
      <trkpt lat="42.51579" lon="2.95208">
        <ele>229.4</ele>
        <time>2020-07-14T10:36:45Z</time>
      </trkpt>
      <trkpt lat="42.51588" lon="2.95205">
        <ele>229.9</ele>
        <time>2020-07-14T10:36:50Z</time>
      </trkpt>
      <trkpt lat="42.51598" lon="2.95203">
        <ele>230</ele>
        <time>2020-07-14T10:36:54Z</time>
      </trkpt>
      <trkpt lat="42.51609" lon="2.95208">
        <ele>227.6</ele>
        <time>2020-07-14T10:36:58Z</time>
      </trkpt>
      <trkpt lat="42.51618" lon="2.95213">
        <ele>224.3</ele>
        <time>2020-07-14T10:37:02Z</time>
      </trkpt>
      <trkpt lat="42.51626" lon="2.95221">
        <ele>221.2</ele>
        <time>2020-07-14T10:37:05Z</time>
      </trkpt>
      <trkpt lat="42.51634" lon="2.95233">
        <ele>217.7</ele>
        <time>2020-07-14T10:37:08Z</time>
      </trkpt>
      <trkpt lat="42.51646" lon="2.9524">
        <ele>215.3</ele>
        <time>2020-07-14T10:37:10Z</time>
      </trkpt>
      <trkpt lat="42.51657" lon="2.95245">
        <ele>213.7</ele>
        <time>2020-07-14T10:37:12Z</time>
      </trkpt>
      <trkpt lat="42.51665" lon="2.95251">
        <ele>211.6</ele>
        <time>2020-07-14T10:37:25Z</time>
      </trkpt>
      <trkpt lat="42.51677" lon="2.9525">
        <ele>211.6</ele>
        <time>2020-07-14T10:37:41Z</time>
      </trkpt>
      <trkpt lat="42.51688" lon="2.95252">
        <ele>211.6</ele>
        <time>2020-07-14T10:37:45Z</time>
      </trkpt>
      <trkpt lat="42.51698" lon="2.95255">
        <ele>211.6</ele>
        <time>2020-07-14T10:37:49Z</time>
      </trkpt>
      <trkpt lat="42.51708" lon="2.9526">
        <ele>210.1</ele>
        <time>2020-07-14T10:37:53Z</time>
      </trkpt>
      <trkpt lat="42.51716" lon="2.95267">
        <ele>208.3</ele>
        <time>2020-07-14T10:37:56Z</time>
      </trkpt>
      <trkpt lat="42.51726" lon="2.95273">
        <ele>206.4</ele>
        <time>2020-07-14T10:37:59Z</time>
      </trkpt>
      <trkpt lat="42.51736" lon="2.95278">
        <ele>203</ele>
        <time>2020-07-14T10:38:03Z</time>
      </trkpt>
      <trkpt lat="42.51744" lon="2.95285">
        <ele>199.5</ele>
        <time>2020-07-14T10:38:07Z</time>
      </trkpt>
      <trkpt lat="42.51753" lon="2.95281">
        <ele>194.7</ele>
        <time>2020-07-14T10:38:16Z</time>
      </trkpt>
      <trkpt lat="42.51758" lon="2.95268">
        <ele>193.5</ele>
        <time>2020-07-14T10:38:21Z</time>
      </trkpt>
      <trkpt lat="42.51761" lon="2.95254">
        <ele>192.1</ele>
        <time>2020-07-14T10:38:25Z</time>
      </trkpt>
      <trkpt lat="42.51765" lon="2.95243">
        <ele>190.7</ele>
        <time>2020-07-14T10:38:28Z</time>
      </trkpt>
      <trkpt lat="42.51766" lon="2.9523">
        <ele>189.6</ele>
        <time>2020-07-14T10:38:31Z</time>
      </trkpt>
      <trkpt lat="42.51768" lon="2.95215">
        <ele>187.9</ele>
        <time>2020-07-14T10:38:34Z</time>
      </trkpt>
      <trkpt lat="42.51768" lon="2.95202">
        <ele>186.2</ele>
        <time>2020-07-14T10:38:37Z</time>
      </trkpt>
      <trkpt lat="42.51776" lon="2.95196">
        <ele>184.9</ele>
        <time>2020-07-14T10:39:10Z</time>
      </trkpt>
    </trkseg>
  </trk>
</gpx>